createdAt,value
2022-08-24T00:00:23.902Z,21.88
2022-08-24T00:05:26.007Z,21.68
2022-08-24T00:10:27.618Z,21.75
2022-08-24T00:15:29.229Z,21.90
2022-08-24T00:20:30.868Z,21.73
2022-08-24T00:25:33.894Z,21.58
2022-08-24T00:30:35.862Z,21.37
2022-08-24T00:35:37.619Z,21.28
2022-08-24T00:40:42.365Z,21.48
2022-08-24T00:45:59.766Z,21.54
2022-08-24T00:51:08.535Z,21.55
2022-08-24T00:56:20.468Z,21.43
2022-08-24T01:01:22.639Z,21.35
2022-08-24T01:06:25.412Z,21.47
2022-08-24T01:11:34.003Z,21.59
2022-08-24T01:16:36.646Z,21.68
2022-08-24T01:21:47.896Z,21.69
2022-08-24T01:26:50.977Z,21.75
2022-08-24T01:31:54.102Z,21.66
2022-08-24T01:36:57.291Z,20.80
2022-08-24T01:42:00.041Z,20.06
2022-08-24T01:47:07.408Z,20.06
2022-08-24T01:52:13.933Z,20.23
2022-08-24T01:57:16.070Z,20.53
2022-08-24T02:02:27.275Z,20.51
2022-08-24T02:07:29.102Z,20.53
2022-08-24T02:12:30.714Z,20.39
2022-08-24T02:17:32.826Z,20.26
2022-08-24T02:22:34.468Z,20.13
2022-08-24T02:27:36.116Z,20.10
2022-08-24T02:32:38.084Z,20.14
2022-08-24T02:37:43.645Z,20.14
2022-08-24T02:42:48.527Z,20.08
2022-08-24T02:47:50.622Z,19.90
2022-08-24T02:52:53.511Z,19.83
2022-08-24T02:57:56.572Z,19.78
2022-08-24T03:02:58.406Z,19.57
2022-08-24T03:08:00.422Z,19.45
2022-08-24T03:13:03.103Z,19.36
2022-08-24T03:18:05.207Z,19.36
2022-08-24T03:23:06.867Z,19.34
2022-08-24T03:28:11.183Z,19.32
2022-08-24T03:33:14.329Z,19.35
2022-08-24T03:38:16.418Z,19.44
2022-08-24T03:43:18.369Z,19.38
2022-08-24T03:48:20.176Z,19.26
2022-08-24T03:53:22.219Z,19.22
2022-08-24T03:58:24.191Z,19.14
2022-08-24T04:03:26.862Z,18.96
2022-08-24T04:08:35.742Z,18.80
2022-08-24T04:13:37.579Z,18.79
2022-08-24T04:18:41.063Z,18.80
2022-08-24T04:23:47.528Z,18.89
2022-08-24T04:28:51.064Z,19.04
2022-08-24T04:33:54.200Z,19.08
2022-08-24T04:38:56.944Z,19.16
2022-08-24T04:44:28.036Z,19.29
2022-08-24T04:49:36.329Z,19.40
2022-08-24T04:54:38.037Z,19.34
2022-08-24T04:59:50.844Z,19.13
2022-08-24T05:04:52.445Z,18.83
2022-08-24T05:09:54.975Z,19.06
2022-08-24T05:15:00.272Z,19.39
2022-08-24T05:20:04.570Z,19.69
2022-08-24T05:25:06.977Z,19.97
2022-08-24T05:30:12.035Z,19.98
2022-08-24T05:35:14.095Z,20.37
2022-08-24T05:40:19.503Z,20.50
2022-08-24T05:45:24.965Z,21.02
2022-08-24T05:50:26.782Z,21.61
2022-08-24T05:55:28.421Z,21.83
2022-08-24T06:00:30.648Z,22.30
2022-08-24T06:05:33.206Z,22.65
2022-08-24T06:10:43.488Z,22.53
2022-08-24T06:15:59.444Z,22.40
2022-08-24T06:21:11.345Z,22.56
2022-08-24T06:26:18.280Z,23.12
2022-08-24T06:31:22.825Z,23.50
2022-08-24T06:36:27.408Z,23.61
2022-08-24T06:41:29.399Z,24.07
2022-08-24T06:46:33.038Z,23.97
2022-08-24T06:51:35.318Z,24.49
2022-08-24T06:56:38.347Z,24.31
2022-08-24T07:01:40.190Z,24.50
2022-08-24T07:06:42.066Z,25.19
2022-08-24T07:11:44.482Z,26.57
2022-08-24T07:16:46.161Z,27.02
2022-08-24T07:21:48.406Z,28.17
2022-08-24T07:26:50.068Z,27.72
2022-08-24T07:31:52.266Z,27.15
2022-08-24T07:37:07.354Z,28.89
2022-08-24T07:42:15.838Z,29.36
2022-08-24T07:47:37.711Z,29.46
2022-08-24T07:52:48.651Z,29.41
2022-08-24T07:57:50.908Z,29.80
2022-08-24T08:02:53.232Z,28.95
2022-08-24T08:07:55.539Z,28.59
2022-08-24T08:12:57.533Z,30.30
2022-08-24T08:17:59.595Z,31.33
2022-08-24T08:23:01.921Z,29.72
2022-08-24T08:28:33.106Z,29.35
2022-08-24T08:33:37.294Z,30.82
2022-08-24T08:38:39.900Z,31.64
2022-08-24T08:43:45.623Z,32.20
2022-08-24T08:48:59.154Z,32.65
2022-08-24T08:54:33.172Z,33.05
2022-08-24T08:59:54.822Z,33.20
2022-08-24T09:05:15.152Z,32.75
2022-08-24T09:10:22.852Z,32.19
2022-08-24T09:15:43.004Z,32.62
2022-08-24T09:20:54.175Z,33.54
2022-08-24T09:26:08.953Z,33.28
2022-08-24T09:37:00.672Z,35.19
2022-08-24T09:42:21.009Z,34.60
2022-08-24T09:47:46.492Z,33.68
2022-08-24T09:52:48.212Z,34.14
2022-08-24T09:58:27.068Z,34.96
2022-08-24T10:03:53.660Z,36.33
2022-08-24T10:09:04.551Z,36.43
2022-08-24T10:14:30.898Z,33.84
2022-08-24T10:20:20.685Z,35.71
2022-08-24T10:25:40.304Z,33.93
2022-08-24T10:30:50.378Z,34.95
2022-08-24T10:35:57.693Z,35.26
2022-08-24T10:41:14.423Z,35.32
2022-08-24T10:46:35.962Z,35.84
2022-08-24T10:51:59.469Z,35.37
2022-08-24T10:57:22.449Z,36.33
2022-08-24T11:02:32.168Z,35.89
2022-08-24T11:07:35.371Z,36.27
2022-08-24T11:12:39.019Z,37.44
2022-08-24T11:18:03.123Z,37.13
2022-08-24T11:23:29.625Z,36.28
2022-08-24T11:28:39.005Z,36.78
2022-08-24T11:33:50.249Z,37.92
2022-08-24T11:39:17.320Z,38.59
2022-08-24T11:44:32.571Z,37.42
2022-08-24T11:49:54.998Z,37.70
2022-08-24T11:55:10.363Z,36.66
2022-08-24T12:00:14.705Z,37.73
2022-08-24T12:05:35.617Z,39.73
2022-08-24T12:11:03.339Z,38.96
2022-08-24T12:16:16.858Z,36.74
2022-08-24T12:21:23.897Z,38.75
2022-08-24T12:26:35.589Z,39.19
2022-08-24T12:31:48.433Z,37.65
2022-08-24T12:37:16.358Z,37.84
2022-08-24T12:42:33.407Z,36.60
2022-08-24T12:47:49.776Z,36.60
2022-08-24T12:53:15.153Z,37.60
2022-08-24T12:58:35.060Z,38.58
2022-08-24T13:03:40.601Z,38.15
2022-08-24T13:08:46.171Z,36.58
2022-08-24T13:14:15.226Z,38.07
2022-08-24T13:19:22.921Z,37.34
2022-08-24T13:24:27.945Z,38.78
2022-08-24T13:29:33.759Z,39.32
2022-08-24T13:34:43.667Z,38.73
2022-08-24T13:40:00.846Z,38.37
2022-08-24T13:45:17.744Z,37.61
2022-08-24T13:50:31.339Z,39.35
2022-08-24T13:55:44.949Z,39.60
2022-08-24T14:01:01.568Z,38.10
2022-08-24T14:06:25.133Z,39.05
2022-08-24T14:11:35.700Z,38.72
2022-08-24T14:17:07.069Z,37.72
2022-08-24T14:22:51.710Z,39.03
2022-08-24T14:27:59.381Z,39.45
2022-08-24T14:33:01.069Z,39.16
2022-08-24T14:38:20.912Z,39.10
2022-08-24T14:43:34.743Z,38.76
2022-08-24T14:49:00.897Z,40.38
2022-08-24T14:54:40.301Z,39.39
2022-08-24T15:00:06.562Z,39.21
2022-08-24T15:05:35.389Z,38.97
2022-08-24T15:10:44.119Z,40.06
2022-08-24T15:16:13.842Z,38.41
2022-08-24T15:21:37.393Z,38.76
2022-08-24T15:27:08.073Z,40.01
2022-08-24T15:32:12.485Z,40.96
2022-08-24T15:37:30.812Z,40.32
2022-08-24T15:42:36.798Z,39.93
2022-08-24T15:47:40.986Z,40.02
2022-08-24T15:52:53.817Z,40.55
2022-08-24T15:57:56.580Z,40.10
2022-08-24T16:03:21.021Z,40.36
2022-08-24T16:08:23.782Z,40.41
2022-08-24T16:13:29.837Z,37.93
2022-08-24T16:18:52.282Z,37.92
2022-08-24T16:24:06.469Z,37.45
2022-08-24T16:29:08.110Z,38.03
2022-08-24T16:34:21.574Z,38.71
2022-08-24T16:39:23.740Z,38.77
2022-08-24T16:44:31.636Z,37.16
2022-08-24T16:49:33.374Z,36.93
2022-08-24T16:54:35.123Z,37.55
2022-08-24T16:59:37.011Z,37.11
2022-08-24T17:04:39.418Z,36.73
2022-08-24T17:09:44.333Z,36.52
2022-08-24T17:14:46.244Z,35.71
2022-08-24T17:19:52.876Z,35.33
2022-08-24T17:24:54.664Z,35.37
2022-08-24T17:29:56.584Z,35.04
2022-08-24T17:34:58.506Z,34.86
2022-08-24T17:40:00.163Z,34.69
2022-08-24T17:45:02.043Z,34.24
2022-08-24T17:50:06.372Z,34.03
2022-08-24T17:55:11.370Z,33.78
2022-08-24T18:00:14.295Z,33.43
2022-08-24T18:05:16.101Z,33.15
2022-08-24T18:10:21.864Z,32.83
2022-08-24T18:15:34.610Z,32.67
2022-08-24T18:20:40.454Z,32.33
2022-08-24T18:25:49.456Z,32.02
2022-08-24T18:30:51.894Z,31.62
2022-08-24T18:35:53.577Z,31.28
2022-08-24T18:41:01.544Z,31.16
2022-08-24T18:46:03.573Z,31.18
2022-08-24T18:51:05.816Z,31.24
2022-08-24T18:56:12.268Z,30.92
2022-08-24T19:01:14.713Z,30.83
2022-08-24T19:06:16.756Z,30.79
2022-08-24T19:11:23.171Z,30.21
2022-08-24T19:16:24.885Z,29.67
2022-08-24T19:21:29.600Z,29.43
2022-08-24T19:26:33.547Z,29.17
2022-08-24T19:31:35.303Z,29.16
2022-08-24T19:36:37.136Z,29.52
2022-08-24T19:41:43.015Z,29.72
2022-08-24T19:46:47.837Z,29.64
2022-08-24T19:51:51.050Z,29.25
2022-08-24T19:56:53.585Z,28.50
2022-08-24T20:01:55.283Z,27.71
2022-08-24T20:06:57.694Z,27.58
2022-08-24T20:11:59.333Z,27.66
2022-08-24T20:17:01.531Z,28.09
2022-08-24T20:22:13.064Z,28.34
2022-08-24T20:27:21.218Z,28.36
2022-08-24T20:32:23.581Z,28.26
2022-08-24T20:37:28.244Z,28.10
2022-08-24T20:42:30.461Z,28.02
2022-08-24T20:47:32.219Z,27.90
2022-08-24T20:52:34.002Z,27.85
2022-08-24T20:57:35.766Z,27.57
2022-08-24T21:02:37.424Z,27.19
2022-08-24T21:07:39.662Z,27.09
2022-08-24T21:12:41.277Z,26.96
2022-08-24T21:17:45.893Z,26.79
2022-08-24T21:22:47.568Z,26.64
2022-08-24T21:27:49.385Z,26.38
2022-08-24T21:32:51.080Z,26.14
2022-08-24T21:37:53.069Z,25.98
2022-08-24T21:42:55.753Z,25.90
2022-08-24T21:47:57.434Z,25.74
2022-08-24T21:52:59.709Z,25.89
2022-08-24T21:58:01.410Z,26.02
2022-08-24T22:03:05.393Z,26.14
2022-08-24T22:08:07.117Z,25.68
2022-08-24T22:13:08.879Z,25.14
2022-08-24T22:18:10.737Z,25.16
2022-08-24T22:23:12.364Z,25.49
2022-08-24T22:28:13.920Z,25.31
2022-08-24T22:33:15.966Z,25.07
2022-08-24T22:38:18.644Z,24.44
2022-08-24T22:43:23.245Z,23.86
2022-08-24T22:48:26.610Z,23.72
2022-08-24T22:53:28.574Z,23.64
2022-08-24T22:58:30.279Z,23.70
2022-08-24T23:03:31.961Z,23.65
2022-08-24T23:08:33.658Z,23.63
2022-08-24T23:13:36.173Z,23.55
2022-08-24T23:18:38.879Z,23.53
2022-08-24T23:23:40.766Z,23.50
2022-08-24T23:28:43.139Z,23.42
2022-08-24T23:33:46.463Z,23.55
2022-08-24T23:38:50.196Z,23.33
2022-08-24T23:43:53.591Z,23.14
2022-08-24T23:48:56.719Z,22.87
2022-08-24T23:54:00.682Z,22.78
2022-08-24T23:59:08.973Z,22.80
